createdAt,value
2023-08-07T00:01:08.012Z,97.3
2023-08-07T00:02:22.305Z,97.2
2023-08-07T00:03:36.597Z,97.2
2023-08-07T00:04:50.890Z,97.3
2023-08-07T00:06:05.182Z,97
2023-08-07T00:07:19.475Z,97
2023-08-07T00:08:33.768Z,97
2023-08-07T00:09:48.060Z,97
2023-08-07T00:11:02.353Z,97
2023-08-07T00:12:15.661Z,97
2023-08-07T00:13:29.954Z,97.2
2023-08-07T00:14:44.246Z,97.2
2023-08-07T00:15:58.539Z,97.2
2023-08-07T00:17:12.831Z,97.2
2023-08-07T00:18:26.145Z,97
2023-08-07T00:19:40.438Z,97.1
2023-08-07T00:20:54.731Z,97.3
2023-08-07T00:22:09.023Z,97.3
2023-08-07T00:23:23.316Z,97.3
2023-08-07T00:24:37.608Z,97.4
2023-08-07T00:25:51.901Z,97.2
2023-08-07T00:27:06.193Z,97.2
2023-08-07T00:28:20.486Z,97.3
2023-08-07T00:29:34.778Z,97.1
2023-08-07T00:30:49.071Z,97
2023-08-07T00:32:03.364Z,97.2
2023-08-07T00:33:17.656Z,97.2
2023-08-07T00:34:30.965Z,97.2
2023-08-07T00:35:45.258Z,97.2
2023-08-07T00:36:59.550Z,97.2
2023-08-07T00:38:13.843Z,97.3
2023-08-07T00:40:42.428Z,97.4
2023-08-07T00:41:56.721Z,97.4
2023-08-07T00:43:11.014Z,97.3
2023-08-07T00:44:25.306Z,97.5
2023-08-07T00:45:39.599Z,97.5
2023-08-07T00:46:53.891Z,97.5
2023-08-07T00:48:08.184Z,97.6
2023-08-07T00:49:22.476Z,97.6
2023-08-07T00:50:35.785Z,97.4
2023-08-07T00:51:50.077Z,97.3
2023-08-07T00:53:04.370Z,97.4
2023-08-07T00:54:18.663Z,97.3
2023-08-07T00:55:32.955Z,97.5
2023-08-07T00:56:47.248Z,97.7
2023-08-07T00:58:01.540Z,97.6
2023-08-07T00:59:15.833Z,97.6
2023-08-07T01:00:30.125Z,97.5
2023-08-07T01:01:44.417Z,97.3
2023-08-07T01:02:58.710Z,97.3
2023-08-07T01:04:13.003Z,97.4
2023-08-07T01:05:27.296Z,97.1
2023-08-07T01:06:40.604Z,97.3
2023-08-07T01:07:54.897Z,97.3
2023-08-07T01:09:09.189Z,97.3
2023-08-07T01:10:23.482Z,97.3
2023-08-07T01:11:37.775Z,97
2023-08-07T01:12:52.067Z,97.2
2023-08-07T01:14:06.360Z,97.2
2023-08-07T01:15:20.653Z,97.1
2023-08-07T01:16:34.945Z,97.2
2023-08-07T01:17:49.238Z,97
2023-08-07T01:19:03.530Z,97.1
2023-08-07T01:20:17.823Z,96.8
2023-08-07T01:21:32.116Z,97
2023-08-07T01:22:45.425Z,97
2023-08-07T01:23:59.717Z,97
2023-08-07T01:25:14.010Z,96.8
2023-08-07T01:26:28.303Z,97
2023-08-07T01:27:42.595Z,97
2023-08-07T01:28:56.888Z,97
2023-08-07T01:30:11.180Z,97.2
2023-08-07T01:31:25.473Z,96.9
2023-08-07T01:32:39.765Z,97.1
2023-08-07T01:33:54.058Z,97.3
2023-08-07T01:35:08.351Z,97.2
2023-08-07T01:36:22.644Z,97.2
2023-08-07T01:37:36.937Z,97.3
2023-08-07T01:38:50.245Z,97.3
2023-08-07T01:40:04.538Z,97.3
2023-08-07T01:41:18.830Z,97.4
2023-08-07T01:42:33.123Z,97.4
2023-08-07T01:43:47.416Z,97.3
2023-08-07T01:45:01.708Z,97.3
2023-08-07T01:46:16.001Z,97.4
2023-08-07T01:47:30.293Z,97.4
2023-08-07T01:48:44.586Z,97.4
2023-08-07T01:49:58.878Z,97.3
2023-08-07T01:51:13.171Z,97.4
2023-08-07T01:52:27.463Z,97.3
2023-08-07T01:53:41.756Z,97.3
2023-08-07T01:54:55.065Z,97.2
2023-08-07T01:56:09.357Z,97.2
2023-08-07T01:57:23.650Z,97.2
2023-08-07T01:58:37.943Z,96.9
2023-08-07T01:59:52.235Z,97
2023-08-07T02:01:06.528Z,97
2023-08-07T02:02:20.820Z,97.1
2023-08-07T02:03:35.113Z,97
2023-08-07T02:04:49.405Z,97.1
2023-08-07T02:06:03.698Z,97
2023-08-07T02:07:17.991Z,96.9
2023-08-07T02:08:32.283Z,97.1
2023-08-07T02:09:46.575Z,97
2023-08-07T02:10:59.884Z,96.9
2023-08-07T02:12:14.178Z,96.7
2023-08-07T02:13:28.470Z,96.6
2023-08-07T02:14:42.762Z,96.5
2023-08-07T02:15:57.055Z,96.7
2023-08-07T02:17:11.347Z,96.7
2023-08-07T02:18:25.640Z,96.7
2023-08-07T02:19:39.932Z,96.7
2023-08-07T02:20:54.225Z,96.9
2023-08-07T02:22:08.518Z,97.1
2023-08-07T02:23:22.810Z,97.3
2023-08-07T02:24:37.103Z,97.5
2023-08-07T02:25:51.395Z,97.3
2023-08-07T02:27:04.704Z,97.3
2023-08-07T02:28:18.997Z,97.3
2023-08-07T02:29:33.290Z,97.1
2023-08-07T02:30:47.583Z,97.3
2023-08-07T02:32:01.875Z,97.1
2023-08-07T02:33:16.168Z,97.3
2023-08-07T02:34:30.460Z,97.3
2023-08-07T02:35:44.753Z,97.5
2023-08-07T02:36:59.045Z,97.5
2023-08-07T02:38:13.337Z,97.5
2023-08-07T02:39:27.630Z,97.5
2023-08-07T02:40:41.923Z,97.8
2023-08-07T02:41:56.215Z,97.7
2023-08-07T02:43:09.524Z,97.5
2023-08-07T02:44:23.817Z,97.5
2023-08-07T02:45:38.109Z,97.3
2023-08-07T02:46:52.402Z,97.5
2023-08-07T02:48:06.694Z,97.5
2023-08-07T02:49:20.987Z,97.3
2023-08-07T02:50:35.280Z,97.1
2023-08-07T02:51:49.572Z,97
2023-08-07T02:53:03.864Z,97
2023-08-07T02:54:18.157Z,96.9
2023-08-07T02:55:32.449Z,97.2
2023-08-07T02:56:46.742Z,97.2
2023-08-07T02:58:01.034Z,97.2
2023-08-07T02:59:14.343Z,97.3
2023-08-07T03:00:28.635Z,97.3
2023-08-07T03:01:42.928Z,97.5
2023-08-07T03:02:57.220Z,97.4
2023-08-07T03:04:11.513Z,97.3
2023-08-07T03:05:25.805Z,97.5
2023-08-07T03:06:40.098Z,97.5
2023-08-07T03:07:54.390Z,97.6
2023-08-07T03:09:08.683Z,97.6
2023-08-07T03:10:22.975Z,97.5
2023-08-07T03:11:37.268Z,97.6
2023-08-07T03:12:51.561Z,97.6
2023-08-07T03:14:05.853Z,97.6
2023-08-07T03:15:19.162Z,97.6
2023-08-07T03:16:33.455Z,97.6
2023-08-07T03:17:47.748Z,97.6
2023-08-07T03:19:02.040Z,97.7
2023-08-07T03:20:16.279Z,97.7
2023-08-07T03:21:30.571Z,97.8
2023-08-07T03:22:44.821Z,97.7
2023-08-07T03:23:59.060Z,97.7
2023-08-07T03:25:13.298Z,97.8
2023-08-07T03:26:27.537Z,97.8
2023-08-07T03:27:41.775Z,97.7
2023-08-07T03:28:56.014Z,97.8
2023-08-07T03:30:10.252Z,97.8
2023-08-07T03:31:23.561Z,97.9
2023-08-07T03:32:37.811Z,98
2023-08-07T03:33:52.050Z,98.1
2023-08-07T03:35:06.288Z,97.9
2023-08-07T03:36:20.527Z,97.9
2023-08-07T03:37:34.765Z,97.9
2023-08-07T03:38:49.004Z,97.8
2023-08-07T03:40:03.242Z,97.9
2023-08-07T03:41:17.480Z,97.7
2023-08-07T03:42:31.719Z,97.8
2023-08-07T03:43:45.958Z,97.8
2023-08-07T03:45:00.196Z,97.8
2023-08-07T03:46:14.435Z,97.8
2023-08-07T03:47:27.690Z,97.8
2023-08-07T03:48:41.928Z,97.7
2023-08-07T03:49:56.167Z,97.7
2023-08-07T03:51:10.405Z,97.8
2023-08-07T03:52:24.644Z,97.5
2023-08-07T03:53:38.882Z,97.7
2023-08-07T03:54:53.121Z,97.5
2023-08-07T03:56:07.360Z,97.8
2023-08-07T03:57:21.598Z,97.8
2023-08-07T03:58:35.837Z,97.9
2023-08-07T03:59:50.075Z,97.9
2023-08-07T04:01:04.314Z,97.8
2023-08-07T04:02:18.552Z,97.9
2023-08-07T04:03:32.791Z,97.9
2023-08-07T04:04:46.045Z,98
2023-08-07T04:06:00.284Z,97.9
2023-08-07T04:07:14.523Z,98
2023-08-07T04:08:28.761Z,98.1
2023-08-07T04:09:43.000Z,98.1
2023-08-07T04:10:57.238Z,98.2
2023-08-07T04:12:11.477Z,98.2
2023-08-07T04:13:25.715Z,98
2023-08-07T04:14:39.954Z,97.9
2023-08-07T04:15:54.193Z,98
2023-08-07T04:17:08.431Z,98.1
2023-08-07T04:18:22.670Z,98.1
2023-08-07T04:19:36.908Z,98
2023-08-07T04:20:50.163Z,98
2023-08-07T04:22:04.401Z,98
2023-08-07T04:23:18.640Z,97.9
2023-08-07T04:24:32.878Z,97.8
2023-08-07T04:25:47.117Z,97.8
2023-08-07T04:27:00.376Z,97.8
2023-08-07T04:28:14.615Z,97.5
2023-08-07T04:29:28.854Z,97.7
2023-08-07T04:30:43.092Z,97.6
2023-08-07T04:31:57.331Z,97.8
2023-08-07T04:33:11.569Z,97.5
2023-08-07T04:34:25.808Z,97.5
2023-08-07T04:35:40.046Z,97.2
2023-08-07T04:36:54.285Z,97.5
2023-08-07T04:38:08.524Z,97.5
2023-08-07T04:39:22.762Z,97.7
2023-08-07T04:40:37.001Z,97.8
2023-08-07T04:41:51.239Z,97.8
2023-08-07T04:43:04.494Z,97.7
2023-08-07T04:44:18.732Z,97.6
2023-08-07T04:45:32.972Z,97.6
2023-08-07T04:46:47.210Z,97.8
2023-08-07T04:48:01.449Z,97.7
2023-08-07T04:49:15.688Z,97.8
2023-08-07T04:50:29.926Z,97.4
2023-08-07T04:51:44.165Z,97.3
2023-08-07T04:52:58.403Z,97.6
2023-08-07T04:54:12.642Z,97.7
2023-08-07T04:55:26.880Z,97.7
2023-08-07T04:56:41.118Z,97.6
2023-08-07T04:57:55.357Z,97.6
2023-08-07T04:59:08.612Z,97.7
2023-08-07T05:00:22.851Z,97.8
2023-08-07T05:01:37.089Z,97.3
2023-08-07T05:02:51.328Z,97.5
2023-08-07T05:04:05.567Z,97.7
2023-08-07T05:05:19.805Z,97.8
2023-08-07T05:06:34.044Z,97.5
2023-08-07T05:07:48.283Z,97.3
2023-08-07T05:09:02.521Z,97.3
2023-08-07T05:10:16.760Z,97.3
2023-08-07T05:11:30.999Z,97.3
2023-08-07T05:12:45.237Z,96.6
2023-08-07T05:13:59.476Z,96.6
2023-08-07T05:15:12.731Z,96.3
2023-08-07T05:16:26.969Z,96.8
2023-08-07T05:17:41.208Z,96.5
2023-08-07T05:18:55.446Z,96.7
2023-08-07T05:20:09.685Z,96.8
2023-08-07T05:21:23.924Z,97
2023-08-07T05:22:38.162Z,96.7
2023-08-07T05:23:52.401Z,96.3
2023-08-07T05:25:06.640Z,96.6
2023-08-07T05:26:20.878Z,96.2
2023-08-07T05:27:35.117Z,96.3
2023-08-07T05:28:49.356Z,96
2023-08-07T05:30:03.595Z,96.5
2023-08-07T05:31:16.850Z,95.4
2023-08-07T05:32:31.089Z,96
2023-08-07T05:33:45.328Z,96.1
2023-08-07T05:34:59.566Z,96.2
2023-08-07T05:36:13.805Z,96.2
2023-08-07T05:37:28.044Z,96.2
2023-08-07T05:38:42.283Z,96
2023-08-07T05:39:56.522Z,96.1
2023-08-07T05:41:10.761Z,95.8
2023-08-07T05:42:25.000Z,95.9
2023-08-07T05:43:39.239Z,96.2
2023-08-07T05:44:53.478Z,96.4
2023-08-07T05:46:07.717Z,95.8
2023-08-07T05:47:20.971Z,96
2023-08-07T05:48:35.210Z,96
2023-08-07T05:49:49.449Z,96
2023-08-07T05:51:03.687Z,95.5
2023-08-07T05:52:17.926Z,95.1
2023-08-07T05:53:32.165Z,95.5
2023-08-07T05:54:46.404Z,94.8
2023-08-07T05:56:00.643Z,94.7
2023-08-07T05:57:14.882Z,95.1
2023-08-07T05:58:29.121Z,95.1
2023-08-07T05:59:43.359Z,95.1
2023-08-07T06:02:11.837Z,95.1
2023-08-07T06:03:25.092Z,95.6
2023-08-07T06:04:39.331Z,95.8
2023-08-07T06:05:53.570Z,95.5
2023-08-07T06:07:07.809Z,95.1
2023-08-07T06:08:22.047Z,95.1
2023-08-07T06:09:36.286Z,94.6
2023-08-07T06:10:50.525Z,94.3
2023-08-07T06:12:04.764Z,94.6
2023-08-07T06:13:19.002Z,94.5
2023-08-07T06:14:33.242Z,94.5
2023-08-07T06:15:47.480Z,94.7
2023-08-07T06:17:01.719Z,94.8
2023-08-07T06:18:15.958Z,95
2023-08-07T06:19:29.212Z,94.9
2023-08-07T06:20:43.451Z,95.4
2023-08-07T06:21:57.690Z,94.7
2023-08-07T06:23:11.929Z,94.1
2023-08-07T06:24:26.168Z,95
2023-08-07T06:25:40.407Z,94.7
2023-08-07T06:26:54.646Z,94.5
2023-08-07T06:28:08.884Z,94
2023-08-07T06:29:23.123Z,94
2023-08-07T06:30:37.362Z,94.1
2023-08-07T06:31:51.601Z,94
2023-08-07T06:33:05.840Z,93.2
2023-08-07T06:34:20.079Z,93.2
2023-08-07T06:35:33.334Z,93.2
2023-08-07T06:36:47.573Z,93.4
2023-08-07T06:38:01.812Z,93.2
2023-08-07T06:39:16.051Z,93.4
2023-08-07T06:40:30.289Z,92.2
2023-08-07T06:41:44.528Z,92.2
2023-08-07T06:42:58.767Z,92.4
2023-08-07T06:44:13.006Z,92.4
2023-08-07T06:45:27.245Z,92.2
2023-08-07T06:46:41.484Z,92.3
2023-08-07T06:47:55.722Z,92.9
2023-08-07T06:49:09.961Z,93
2023-08-07T06:50:24.200Z,93
2023-08-07T06:51:38.439Z,93.1
2023-08-07T06:52:51.694Z,93.3
2023-08-07T06:54:05.932Z,92.9
2023-08-07T06:55:20.171Z,93.1
2023-08-07T06:56:34.410Z,93.3
2023-08-07T06:57:48.649Z,93.1
2023-08-07T06:59:02.888Z,93.3
2023-08-07T07:00:17.126Z,93.4
2023-08-07T07:01:31.365Z,94
2023-08-07T07:02:45.604Z,93.8
2023-08-07T07:03:59.843Z,92.7
2023-08-07T07:05:14.081Z,92.8
2023-08-07T07:06:28.320Z,92.8
2023-08-07T07:07:42.558Z,92.3
2023-08-07T07:08:55.813Z,92.2
2023-08-07T07:10:10.052Z,92.4
2023-08-07T07:11:24.290Z,92.8
2023-08-07T07:12:38.529Z,93.3
2023-08-07T07:13:52.769Z,91.7
2023-08-07T07:15:07.008Z,92
2023-08-07T07:16:21.247Z,92.5
2023-08-07T07:17:35.485Z,92.4
2023-08-07T07:18:49.724Z,91.8
2023-08-07T07:20:03.963Z,91.8
2023-08-07T07:21:18.202Z,91.9
2023-08-07T07:22:32.440Z,91.4
2023-08-07T07:23:46.679Z,90.7
2023-08-07T07:24:59.934Z,91.4
2023-08-07T07:26:14.172Z,91.4
2023-08-07T07:27:28.411Z,91
2023-08-07T07:28:42.649Z,91.6
2023-08-07T07:29:56.889Z,91.9
2023-08-07T07:31:11.127Z,93.2
2023-08-07T07:32:25.367Z,94.2
2023-08-07T07:33:39.605Z,94.7
2023-08-07T07:34:53.844Z,94.6
2023-08-07T07:36:08.083Z,91.9
2023-08-07T07:37:22.322Z,92.1
2023-08-07T07:38:36.560Z,91.6
2023-08-07T07:39:50.798Z,90.8
2023-08-07T07:41:04.053Z,89.1
2023-08-07T07:42:18.291Z,88.7
2023-08-07T07:43:32.529Z,88.9
2023-08-07T07:44:46.768Z,88.7
2023-08-07T07:46:01.006Z,91.3
2023-08-07T07:47:15.245Z,89.2
2023-08-07T07:48:29.483Z,86.5
2023-08-07T07:49:43.721Z,86.5
2023-08-07T07:50:57.960Z,87.6
2023-08-07T07:52:12.198Z,85.2
2023-08-07T07:53:26.436Z,84.1
2023-08-07T07:54:40.674Z,84.8
2023-08-07T07:55:54.912Z,85.5
2023-08-07T07:57:09.150Z,85.9
2023-08-07T07:58:22.404Z,85
2023-08-07T07:59:36.643Z,84.6
2023-08-07T08:00:50.881Z,85.3
2023-08-07T08:02:05.119Z,86.4
2023-08-07T08:03:19.357Z,85.5
2023-08-07T08:04:33.596Z,81.9
2023-08-07T08:05:47.834Z,83
2023-08-07T08:07:02.072Z,83.9
2023-08-07T08:08:16.310Z,85.9
2023-08-07T08:09:30.549Z,85.9
2023-08-07T08:10:44.787Z,86.8
2023-08-07T08:11:59.026Z,84.4
2023-08-07T08:13:13.264Z,83.8
2023-08-07T08:14:26.518Z,83.8
2023-08-07T08:15:40.756Z,83.2
2023-08-07T08:16:54.995Z,82.8
2023-08-07T08:18:09.233Z,84.4
2023-08-07T08:19:23.471Z,83.6
2023-08-07T08:20:37.710Z,85.8
2023-08-07T08:21:51.948Z,81.2
2023-08-07T08:23:06.187Z,80.7
2023-08-07T08:24:20.426Z,81
2023-08-07T08:25:34.665Z,81
2023-08-07T08:26:48.903Z,81.9
2023-08-07T08:28:03.142Z,81.7
2023-08-07T08:29:17.380Z,80.9
2023-08-07T08:30:30.635Z,81
2023-08-07T08:31:44.873Z,78.4
2023-08-07T08:32:59.112Z,77.7
2023-08-07T08:34:13.351Z,77.4
2023-08-07T08:35:26.611Z,76.8
2023-08-07T08:36:40.849Z,77.6
2023-08-07T08:37:55.088Z,76.5
2023-08-07T08:39:09.326Z,76.6
2023-08-07T08:40:23.565Z,78.5
2023-08-07T08:41:37.803Z,76.5
2023-08-07T08:42:52.042Z,76
2023-08-07T08:44:06.280Z,75.7
2023-08-07T08:45:20.519Z,76
2023-08-07T08:46:34.758Z,75.1
2023-08-07T08:47:48.996Z,75.4
2023-08-07T08:49:03.235Z,74.7
2023-08-07T08:50:17.473Z,75.3
2023-08-07T08:51:30.728Z,76
2023-08-07T08:52:44.966Z,78
2023-08-07T08:53:59.205Z,81.1
2023-08-07T08:55:13.443Z,79
2023-08-07T08:56:27.682Z,79.5
2023-08-07T08:57:41.921Z,79.5
2023-08-07T08:58:56.159Z,75.6
2023-08-07T09:00:10.398Z,74.7
2023-08-07T09:01:24.636Z,73.9
2023-08-07T09:02:38.875Z,76.8
2023-08-07T09:03:53.113Z,76.3
2023-08-07T09:05:07.351Z,78.1
2023-08-07T09:06:21.590Z,78.5
2023-08-07T09:07:34.845Z,75.8
2023-08-07T09:08:49.083Z,76
2023-08-07T09:10:03.322Z,76.9
2023-08-07T09:11:17.560Z,74.1
2023-08-07T09:12:31.798Z,74.4
2023-08-07T09:13:46.037Z,75.6
2023-08-07T09:15:00.275Z,75.4
2023-08-07T09:16:14.514Z,74.8
2023-08-07T09:17:28.753Z,74
2023-08-07T09:18:42.991Z,71.3
2023-08-07T09:19:57.230Z,71.6
2023-08-07T09:21:11.468Z,70.9
2023-08-07T09:22:25.706Z,70.4
2023-08-07T09:23:38.961Z,71.2
2023-08-07T09:24:53.199Z,70.1
2023-08-07T09:26:07.438Z,71.3
2023-08-07T09:27:21.676Z,72.4
2023-08-07T09:28:35.915Z,72.2
2023-08-07T09:29:50.153Z,73.8
2023-08-07T09:31:04.391Z,74.1
2023-08-07T09:32:18.630Z,73.7
2023-08-07T09:33:32.868Z,72.6
2023-08-07T09:34:47.106Z,71.5
2023-08-07T09:36:01.345Z,72.1
2023-08-07T09:37:15.583Z,73.4
2023-08-07T09:38:29.822Z,72.7
2023-08-07T09:39:43.077Z,70
2023-08-07T09:40:57.315Z,72.2
2023-08-07T09:42:11.553Z,71.3
2023-08-07T09:43:25.792Z,71.6
2023-08-07T09:44:40.030Z,71.6
2023-08-07T09:45:54.268Z,71.9
2023-08-07T09:47:08.507Z,71.2
2023-08-07T09:48:22.745Z,71.9
2023-08-07T09:49:36.984Z,70.7
2023-08-07T09:50:51.222Z,71
2023-08-07T09:52:05.461Z,71.5
2023-08-07T09:53:19.699Z,71.8
2023-08-07T09:54:33.938Z,70.5
2023-08-07T09:55:47.192Z,72.6
2023-08-07T09:57:01.431Z,70.3
2023-08-07T09:58:15.669Z,71
2023-08-07T09:59:29.908Z,69.8
2023-08-07T10:00:44.147Z,68.2
2023-08-07T10:01:58.386Z,69.3
2023-08-07T10:03:12.624Z,68.8
2023-08-07T10:04:26.863Z,65.9
2023-08-07T10:05:41.102Z,66.6
2023-08-07T10:06:55.340Z,65.3
2023-08-07T10:08:09.579Z,62.8
2023-08-07T10:09:23.817Z,63.7
2023-08-07T10:10:38.056Z,66
2023-08-07T10:11:51.311Z,64.4
2023-08-07T10:13:05.550Z,64.8
2023-08-07T10:14:19.788Z,64.4
2023-08-07T10:15:34.026Z,65.3
2023-08-07T10:16:48.265Z,64.7
2023-08-07T10:18:02.504Z,67.3
2023-08-07T10:19:16.742Z,68.3
2023-08-07T10:20:30.981Z,66.6
2023-08-07T10:21:45.219Z,67.6
2023-08-07T10:22:59.458Z,68.1
2023-08-07T10:24:13.696Z,67.8
2023-08-07T10:25:27.935Z,68
2023-08-07T10:26:42.173Z,68.2
2023-08-07T10:27:55.428Z,67.2
2023-08-07T10:29:09.666Z,67.7
2023-08-07T10:30:23.905Z,66.5
2023-08-07T10:31:38.143Z,67
2023-08-07T10:32:52.382Z,65.8
2023-08-07T10:34:06.621Z,65.9
2023-08-07T10:35:20.859Z,65.2
2023-08-07T10:36:35.097Z,66.7
2023-08-07T10:37:49.336Z,66.5
2023-08-07T10:39:03.574Z,67
2023-08-07T10:40:17.813Z,67.5
2023-08-07T10:41:32.051Z,66.7
2023-08-07T10:42:46.290Z,66.2
2023-08-07T10:43:59.545Z,66.4
2023-08-07T10:45:13.783Z,68.8
2023-08-07T10:46:28.022Z,67.4
2023-08-07T10:47:42.260Z,69
2023-08-07T10:48:56.499Z,67.3
2023-08-07T10:50:10.737Z,68.3
2023-08-07T10:51:24.975Z,67.5
2023-08-07T10:52:39.214Z,68.8
2023-08-07T10:53:53.453Z,69.8
2023-08-07T10:55:07.691Z,70.2
2023-08-07T10:56:21.930Z,69.9
2023-08-07T10:57:36.168Z,70.5
2023-08-07T10:58:50.406Z,70.2
2023-08-07T11:00:03.661Z,70.9
2023-08-07T11:01:17.899Z,70.2
2023-08-07T11:02:32.138Z,69.1
2023-08-07T11:03:46.376Z,70.9
2023-08-07T11:05:00.615Z,70.6
2023-08-07T11:06:14.853Z,70
2023-08-07T11:07:29.092Z,69.5
2023-08-07T11:08:43.331Z,68.5
2023-08-07T11:09:57.569Z,69.2
2023-08-07T11:11:11.807Z,68.2
2023-08-07T11:12:26.046Z,65.8
2023-08-07T11:13:40.284Z,66.9
2023-08-07T11:14:54.522Z,67.9
2023-08-07T11:16:07.777Z,68.6
2023-08-07T11:17:22.015Z,67.7
2023-08-07T11:18:36.254Z,66
2023-08-07T11:19:50.492Z,68.2
2023-08-07T11:21:04.730Z,69.1
2023-08-07T11:22:18.969Z,68.7
2023-08-07T11:23:33.207Z,69.2
2023-08-07T11:24:47.445Z,68.7
2023-08-07T11:26:01.684Z,67.5
2023-08-07T11:27:15.922Z,67.1
2023-08-07T11:28:30.161Z,68.7
2023-08-07T11:29:44.399Z,70.2
2023-08-07T11:30:58.637Z,68.2
2023-08-07T11:32:11.892Z,66
2023-08-07T11:33:26.130Z,67.5
2023-08-07T11:34:40.369Z,67.8
2023-08-07T11:35:54.607Z,68.9
2023-08-07T11:37:08.846Z,65.6
2023-08-07T11:38:23.084Z,65.3
2023-08-07T11:39:37.322Z,65.8
2023-08-07T11:40:51.561Z,65.8
2023-08-07T11:42:05.799Z,66.2
2023-08-07T11:43:20.037Z,65.7
2023-08-07T11:44:34.276Z,64.4
2023-08-07T11:45:48.514Z,64.3
2023-08-07T11:47:02.753Z,65.2
2023-08-07T11:48:16.007Z,66.7
2023-08-07T11:49:30.246Z,65.8
2023-08-07T11:50:44.484Z,67
2023-08-07T11:51:58.722Z,67
2023-08-07T11:53:12.961Z,68.3
2023-08-07T11:54:27.199Z,68.2
2023-08-07T11:55:41.437Z,69.4
2023-08-07T11:56:55.676Z,70.4
2023-08-07T11:58:09.914Z,71.4
2023-08-07T11:59:24.153Z,69
2023-08-07T12:00:38.391Z,71.3
2023-08-07T12:01:52.629Z,70
2023-08-07T12:03:06.867Z,69
2023-08-07T12:04:20.122Z,69.7
2023-08-07T12:05:34.360Z,68.7
2023-08-07T12:06:48.598Z,70.7
2023-08-07T12:08:02.837Z,71.1
2023-08-07T12:09:17.075Z,70.4
2023-08-07T12:10:31.314Z,71.5
2023-08-07T12:11:45.552Z,68
2023-08-07T12:12:59.790Z,69
2023-08-07T12:14:14.029Z,68
2023-08-07T12:15:28.267Z,68.2
2023-08-07T12:16:42.505Z,68.5
2023-08-07T12:17:56.744Z,68.7
2023-08-07T12:19:10.982Z,67.9
2023-08-07T12:20:24.237Z,67.1
2023-08-07T12:21:38.475Z,66
2023-08-07T12:22:52.713Z,66.8
2023-08-07T12:24:06.952Z,66.5
2023-08-07T12:25:21.190Z,66.7
2023-08-07T12:26:35.429Z,65.3
2023-08-07T12:27:49.667Z,66
2023-08-07T12:29:03.906Z,64.8
2023-08-07T12:30:18.145Z,64.2
2023-08-07T12:31:32.383Z,65.1
2023-08-07T12:32:46.622Z,66.6
2023-08-07T12:34:00.860Z,67.1
2023-08-07T12:35:15.098Z,67.5
2023-08-07T12:36:28.353Z,69.3
2023-08-07T12:37:42.591Z,69.8
2023-08-07T12:38:56.829Z,69.9
2023-08-07T12:40:11.068Z,70.3
2023-08-07T12:41:25.307Z,71.1
2023-08-07T12:42:39.545Z,70.2
2023-08-07T12:43:52.805Z,70.9
2023-08-07T12:45:07.043Z,69.9
2023-08-07T12:46:21.281Z,71.1
2023-08-07T12:47:35.520Z,70.3
2023-08-07T12:48:49.758Z,70
2023-08-07T12:50:03.996Z,70
2023-08-07T12:51:18.235Z,70.3
2023-08-07T12:52:32.473Z,70.7
2023-08-07T12:53:46.712Z,70.5
2023-08-07T12:55:00.950Z,70
2023-08-07T12:56:15.188Z,69.4
2023-08-07T12:57:29.427Z,70.2
2023-08-07T12:58:43.665Z,71.1
2023-08-07T12:59:56.919Z,71.9
2023-08-07T13:01:11.158Z,73.1
2023-08-07T13:02:25.396Z,74.4
2023-08-07T13:03:39.635Z,74.6
2023-08-07T13:04:53.873Z,75.8
2023-08-07T13:06:08.112Z,76
2023-08-07T13:07:22.350Z,76.8
2023-08-07T13:08:36.589Z,77.5
2023-08-07T13:09:50.827Z,76.5
2023-08-07T13:11:05.065Z,76.8
2023-08-07T13:12:19.304Z,76.1
2023-08-07T13:13:33.543Z,77
2023-08-07T13:14:47.781Z,76.3
2023-08-07T13:16:02.019Z,77.6
2023-08-07T13:17:15.274Z,76.6
2023-08-07T13:18:29.512Z,77
2023-08-07T13:19:43.751Z,77.5
2023-08-07T13:20:57.989Z,74.9
2023-08-07T13:22:12.227Z,75.7
2023-08-07T13:23:26.466Z,76.1
2023-08-07T13:24:40.704Z,75.7
2023-08-07T13:25:54.943Z,73.8
2023-08-07T13:27:09.181Z,75.4
2023-08-07T13:28:23.419Z,74.8
2023-08-07T13:29:37.658Z,74.2
2023-08-07T13:30:51.896Z,73.6
2023-08-07T13:32:06.134Z,72.9
2023-08-07T13:33:19.389Z,73.6
2023-08-07T13:34:33.627Z,75.5
2023-08-07T13:35:47.866Z,74.9
2023-08-07T13:37:02.104Z,73.8
2023-08-07T13:38:16.342Z,75.1
2023-08-07T13:39:30.581Z,74.4
2023-08-07T13:40:44.819Z,74
2023-08-07T13:41:59.057Z,72.4
2023-08-07T13:43:13.295Z,72.3
2023-08-07T13:44:27.534Z,72.2
2023-08-07T13:45:41.772Z,71.1
2023-08-07T13:46:56.011Z,71.3
2023-08-07T13:48:10.249Z,72.6
2023-08-07T13:49:23.504Z,71.7
2023-08-07T13:50:37.742Z,73.4
2023-08-07T13:51:51.980Z,72.3
2023-08-07T13:53:06.219Z,73.5
2023-08-07T13:54:20.457Z,72
2023-08-07T13:55:34.695Z,72
2023-08-07T13:56:48.934Z,69.5
2023-08-07T13:58:03.172Z,71
2023-08-07T13:59:17.410Z,71.6
2023-08-07T14:00:31.649Z,70.7
2023-08-07T14:01:45.887Z,69.7
2023-08-07T14:03:00.125Z,69.9
2023-08-07T14:04:14.364Z,69.4
2023-08-07T14:05:28.602Z,69.1
2023-08-07T14:06:41.856Z,71
2023-08-07T14:07:56.095Z,73.3
2023-08-07T14:09:10.334Z,73.7
2023-08-07T14:10:24.572Z,74
2023-08-07T14:11:38.811Z,75.1
2023-08-07T14:12:53.050Z,76.1
2023-08-07T14:14:07.288Z,76
2023-08-07T14:15:21.526Z,75.7
2023-08-07T14:16:35.765Z,73.8
2023-08-07T14:17:50.004Z,71.3
2023-08-07T14:19:04.242Z,72.6
2023-08-07T14:20:18.480Z,71.9
2023-08-07T14:21:32.719Z,70.9
2023-08-07T14:22:45.973Z,71
2023-08-07T14:24:00.212Z,72.1
2023-08-07T14:25:14.450Z,71.2
2023-08-07T14:26:28.688Z,71.1
2023-08-07T14:27:42.927Z,71.9
2023-08-07T14:28:57.166Z,71.4
2023-08-07T14:30:11.404Z,71.6
2023-08-07T14:31:25.643Z,72.4
2023-08-07T14:32:39.881Z,71
2023-08-07T14:35:08.358Z,74.2
2023-08-07T14:36:22.596Z,70.9
2023-08-07T14:37:36.835Z,72.6
2023-08-07T14:38:50.089Z,71.5
2023-08-07T14:40:04.328Z,71.1
2023-08-07T14:41:18.566Z,71.7
2023-08-07T14:42:32.805Z,72.1
2023-08-07T14:43:47.043Z,72.8
2023-08-07T14:45:01.282Z,71.2
2023-08-07T14:46:15.520Z,71.2
2023-08-07T14:47:29.758Z,71
2023-08-07T14:48:43.997Z,71.8
2023-08-07T14:49:58.235Z,71.8
2023-08-07T14:51:12.474Z,73
2023-08-07T14:52:26.712Z,73.4
2023-08-07T14:53:40.951Z,74.1
2023-08-07T14:54:54.205Z,74.5
2023-08-07T14:56:08.444Z,75.7
2023-08-07T14:57:22.682Z,75.8
2023-08-07T14:58:36.920Z,76.3
2023-08-07T14:59:51.159Z,76.3
2023-08-07T15:01:05.398Z,77.2
2023-08-07T15:02:19.636Z,77.8
2023-08-07T15:03:33.875Z,77.7
2023-08-07T15:04:48.113Z,78.9
2023-08-07T15:06:02.353Z,79.6
2023-08-07T15:07:16.591Z,80.4
2023-08-07T15:08:30.830Z,81.1
2023-08-07T15:09:45.068Z,81.5
2023-08-07T15:10:59.307Z,82.8
2023-08-07T15:12:12.562Z,82.4
2023-08-07T15:13:26.800Z,81.7
2023-08-07T15:14:41.039Z,81.3
2023-08-07T15:15:55.277Z,81.7
2023-08-07T15:17:09.516Z,82.3
2023-08-07T15:18:23.754Z,81.4
2023-08-07T15:19:37.993Z,81.7
2023-08-07T15:20:52.231Z,81.5
2023-08-07T15:22:06.470Z,80.5
2023-08-07T15:23:20.709Z,78.8
2023-08-07T15:24:34.947Z,77.4
2023-08-07T15:25:49.186Z,76.9
2023-08-07T15:27:03.424Z,77.7
2023-08-07T15:28:16.679Z,76.8
2023-08-07T15:29:30.917Z,76.7
2023-08-07T15:30:45.156Z,76.8
2023-08-07T15:31:59.394Z,77.7
2023-08-07T15:33:13.633Z,77.8
2023-08-07T15:34:27.872Z,77.2
2023-08-07T15:35:42.110Z,77.8
2023-08-07T15:36:56.349Z,77.5
2023-08-07T15:38:10.587Z,77.5
2023-08-07T15:39:24.826Z,77.2
2023-08-07T15:40:39.064Z,77.4
2023-08-07T15:41:53.304Z,77.6
2023-08-07T15:43:07.542Z,77.9
2023-08-07T15:44:20.797Z,77.5
2023-08-07T15:45:35.036Z,76.9
2023-08-07T15:46:49.274Z,77.2
2023-08-07T15:48:03.513Z,76.6
2023-08-07T15:49:17.751Z,75.8
2023-08-07T15:50:31.990Z,74.7
2023-08-07T15:51:46.228Z,76.1
2023-08-07T15:53:00.466Z,75.3
2023-08-07T15:54:14.705Z,76.9
2023-08-07T15:55:28.943Z,76.8
2023-08-07T15:56:43.182Z,76
2023-08-07T15:57:57.420Z,76.6
2023-08-07T15:59:11.658Z,77.5
2023-08-07T16:00:25.897Z,76.8
2023-08-07T16:01:39.151Z,76.3
2023-08-07T16:02:53.390Z,77.1
2023-08-07T16:04:07.628Z,77
2023-08-07T16:05:21.867Z,75.9
2023-08-07T16:06:36.105Z,76.1
2023-08-07T16:07:50.343Z,76.3
2023-08-07T16:09:04.582Z,75.6
2023-08-07T16:10:18.820Z,75.6
2023-08-07T16:11:33.059Z,75.6
2023-08-07T16:12:47.297Z,74.7
2023-08-07T16:14:01.535Z,75.4
2023-08-07T16:15:15.774Z,74.3
2023-08-07T16:16:30.012Z,75.2
2023-08-07T16:17:43.267Z,74.2
2023-08-07T16:18:57.506Z,75.2
2023-08-07T16:20:11.744Z,74.9
2023-08-07T16:21:25.982Z,75.7
2023-08-07T16:22:40.221Z,75.3
2023-08-07T16:23:54.459Z,74.6
2023-08-07T16:25:08.697Z,75.6
2023-08-07T16:26:22.936Z,75.7
2023-08-07T16:27:37.174Z,75.8
2023-08-07T16:28:51.412Z,74.4
2023-08-07T16:30:05.650Z,75.3
2023-08-07T16:31:19.888Z,74.8
2023-08-07T16:32:34.126Z,75.1
2023-08-07T16:33:47.381Z,75
2023-08-07T16:35:01.619Z,75.2
2023-08-07T16:36:15.857Z,75.9
2023-08-07T16:37:30.096Z,76.7
2023-08-07T16:38:44.334Z,77.6
2023-08-07T16:39:58.572Z,77.7